Crystal Serenity — C6SY3 — position and weather

sailwx.info

Track history (hours):
 
Tides and Currents Weather Stations Pressure Air Temp Water Temp Dewpoint Dewpoint Depression Visibility Wind Speed Wind Dir Waves Ship Positions

Crystal Serenity

Operator: Crystal Cruises

Last reported at 2017-Jul-21 02:21 UTC. Time now 2017-Jul-21 02:31 UTC.
Position N 49°21' W 123°33'.

Length 250 m; draft 7.5 m.

Type: Passenger vessel. MMSI: 311536000.

Date/timePositionNaut miles runAvg speedWind from/ knotsBaromVisibWave heightAir tempDewpointWater temp
2017-Jul-21 02:21N 49°21' W 123°33'514.7
2017-Jul-21 02:00N 49°20' W 123°26'714.8
2017-Jul-21 01:30N 49°19' W 123°14'611.1
2017-Jul-21 01:00N 49°18' W 123°06'0 0.4
2017-Jul-21 00:28N 49°17' W 123°07'0 0.0
2017-Jul-20 23:58N 49°17' W 123°07'0 0.0
2017-Jul-20 23:28N 49°17' W 123°07'0 0.0
2017-Jul-20 22:58N 49°17' W 123°07'0 0.0
2017-Jul-20 22:28N 49°17' W 123°07'0 0.0
2017-Jul-20 21:58N 49°17' W 123°07'0 0.0
2017-Jul-20 21:28N 49°17' W 123°07'0 0.0
2017-Jul-20 20:58N 49°17' W 123°07'0 0.0
2017-Jul-20 20:28N 49°17' W 123°07'0 0.0
2017-Jul-20 19:58N 49°17' W 123°07'0 0.0
2017-Jul-20 19:28N 49°17' W 123°07'0 0.0
2017-Jul-20 18:58N 49°17' W 123°07'0 0.0
2017-Jul-20 18:28N 49°17' W 123°07'0 0.0
2017-Jul-20 17:58N 49°17' W 123°07'0 0.0
2017-Jul-20 17:28N 49°17' W 123°07'0 0.0
2017-Jul-20 16:58N 49°17' W 123°07'0 0.0
2017-Jul-20 16:28N 49°17' W 123°07'0 0.0
2017-Jul-20 15:58N 49°17' W 123°07'0 0.0
2017-Jul-20 15:28N 49°17' W 123°07'0 0.0
2017-Jul-20 14:58N 49°17' W 123°07'0 0.0
2017-Jul-20 14:00N 49°17' W 123°07'1 1.4
2017-Jul-20 13:30N 49°18' W 123°07'4 7.1
2017-Jul-20 13:00N 49°19' W 123°12'4 8.8
2017-Jul-20 12:31N 49°17' W 123°18'5 9.1
2017-Jul-20 12:00N 49°13' W 123°20'72374.3
2017-Jul-20 12:00N 49°06' W 123°18'2 4.7 100 / 161015.0 16.010.413.0
2017-Jul-20 11:29N 49°08' W 123°20'510.4
2017-Jul-20 11:00N 49°03' W 123°18'612.3
2017-Jul-20 10:30N 48°59' W 123°12'612.7
2017-Jul-20 10:00N 48°54' W 123°05'612.2
2017-Jul-20 09:30N 48°49' W 123°00'713.7
2017-Jul-20 09:00N 48°44' W 123°07'2134.3
2017-Jul-20 09:00N 48°42' W 123°06'612.9 230 / 81015.0 16.010.413.0
2017-Jul-20 08:30N 48°40' W 123°15'714.9
2017-Jul-20 08:00N 48°33' W 123°12'714.3
2017-Jul-20 07:30N 48°26' W 123°11'714.9
2017-Jul-20 07:00N 48°22' W 123°21'3 0.2
2017-Jul-19 15:00N 48°24' W 123°18'4 5.7 220 / 101018.010.8 14.0 15.0
2017-Jul-19 14:20N 48°25' W 123°24'0 1.2
2017-Jul-19 14:01N 48°25' W 123°24'510.3
2017-Jul-19 13:31N 48°24' W 123°16'510.4
2017-Jul-19 13:01N 48°28' W 123°12'713.7
2017-Jul-19 12:31N 48°35' W 123°14'713.3
2017-Jul-19 12:00N 48°41' W 123°16'611.2
2017-Jul-19 11:30N 48°44' W 123°09'613.0
2017-Jul-19 11:00N 48°48' W 123°01'6382.3
2017-Jul-19 11:00N 48°42' W 123°00'1326.2 170 / 181015.0 18.012.720.0
2017-Jul-19 10:30N 48°53' W 123°09'816.1
2017-Jul-19 10:00N 48°59' W 123°18'1827.7
2017-Jul-19 10:00N 49°00' W 123°18'714.4 100 / 41015.0 19.013.820.0
2017-Jul-19 09:30N 49°04' W 123°26'715.2
2017-Jul-19 09:00N 49°10' W 123°35'714.8
2017-Jul-19 08:30N 49°13' W 123°44'815.3
2017-Jul-19 08:00N 49°17' W 123°55'815.1
2017-Jul-19 07:30N 49°21' W 124°05'715.1
2017-Jul-19 07:00N 49°24' W 124°15'715.1
2017-Jul-19 06:30N 49°28' W 124°25'815.3
2017-Jul-19 06:00N 49°33' W 124°34'815.3
2017-Jul-19 05:30N 49°39' W 124°42'815.0
2017-Jul-19 05:00N 49°44' W 124°50'3201.7
2017-Jul-19 05:00N 49°42' W 124°48'1020.0 070 / 61015.010.8 20.0 12.0
2017-Jul-19 04:30N 49°50' W 124°57'714.3
2017-Jul-19 04:00N 49°54' W 125°05'714.5
2017-Jul-19 03:30N 50°00' W 125°13'713.5
2017-Jul-19 03:00N 50°06' W 125°18'611.6
2017-Jul-19 02:30N 50°11' W 125°22'2 3.0
2017-Jul-19 02:00N 50°12' W 125°24'5193.8 170 / 111015.010.8 26.0 12.0
2017-Jul-19 01:58N 50°17' W 125°25'811.2
2017-Jul-19 01:16N 50°22' W 125°34'723.4
2017-Jul-19 01:00N 50°18' W 125°42'438.1 310 / 131018.0 5.4 15.0 15.0
2017-Jul-19 00:53N 50°22' W 125°42'3210.9
2017-Jul-18 22:00N 50°30' W 126°30'1322.2 260 / 171017.0 16.012.413.0
2017-Jul-18 21:25N 50°37' W 126°47'715.6
2017-Jul-18 20:58N 50°42' W 126°55'814.8
2017-Jul-18 20:24N 50°45' W 127°08'615.0
2017-Jul-18 20:00N 50°47' W 127°16'8559.7
2017-Jul-18 20:00N 50°42' W 127°06'1531.4 330 / 41017.0 15.011.312.0
2017-Jul-18 19:30N 50°50' W 127°27'714.2
2017-Jul-18 19:00N 50°53' W 127°37'714.2
2017-Jul-18 18:30N 50°58' W 127°45'713.9
2017-Jul-18 18:00N 51°00' W 127°56'197.6
2017-Jul-18 18:00N 51°00' W 127°54'816.5 090 / 71018.0 15.0 14.0
2017-Jul-18 17:29N 51°02' W 128°07'918.8
2017-Jul-18 17:01N 51°04' W 128°21'1019.2
2017-Jul-18 16:31N 51°07' W 128°35'1019.4
2017-Jul-18 16:00N 51°11' W 128°49'1019.3
2017-Jul-18 15:30N 51°15' W 129°03'1019.3
2017-Jul-18 15:00N 51°23' W 129°13'1919.2
2017-Jul-18 14:00N 51°39' W 129°31'3356.4
2017-Jul-18 14:00N 51°42' W 129°30'815.4 350 / 201020.010.8 14.0 15.0
2017-Jul-18 13:29N 51°46' W 129°40'13618.2
2017-Jul-18 06:00N 53°54' W 131°00'142 6.8 300 / 191022.010.8 12.0 12.0
2017-Jul-17 09:00N 55°18' W 134°18'7618.9 210 / 71023.0 12.0 7.914.0
2017-Jul-17 05:00N 56°24' W 135°24'42 3.5 200 / 81020.010.8 13.0 12.0
2017-Jul-16 17:00N 57°06' W 135°18'30 5.0 210 / 71018.0 2.2 12.0 10.0
2017-Jul-16 11:00N 57°00' W 136°12'48 9.5 260 / 211017.0 11.0 6.814.0
2017-Jul-16 06:00N 57°42' W 136°54'36 8.9 260 / 171017.010.8 12.0 11.0
2017-Jul-16 02:00N 58°12' W 136°18'7227.6 210 / 221018.0 5.4 11.0 10.0
2017-Jul-16 01:58N 58°19' W 136°12'613.3
2017-Jul-16 01:30N 58°21' W 136°01'510.5
2017-Jul-16 01:00N 58°27' W 136°00'510.9
2017-Jul-16 00:31N 58°32' W 136°03'714.3
2017-Jul-16 00:01N 58°39' W 136°08'714.0
2017-Jul-15 23:30N 58°44' W 136°17'2 4.1
2017-Jul-15 23:00N 58°42' W 136°18'2222.2 320 / 31017.0 11.0 6.8 6.0
2017-Jul-15 22:00N 58°54' W 136°54'24 4.2 090 / 21017.0 10.0 5.7 6.0
2017-Jul-15 16:27N 58°43' W 136°14'714.6
2017-Jul-15 16:00N 58°38' W 136°06'714.0
2017-Jul-15 15:30N 58°31' W 136°04'611.9
2017-Jul-15 15:00N 58°26' W 135°58'8 7.8
2017-Jul-15 14:00N 58°19' W 135°52'5 9.4
2017-Jul-15 13:30N 58°18' W 135°43'5 9.4
2017-Jul-15 12:59N 58°16' W 135°34'5 9.5
2017-Jul-15 12:31N 58°14' W 135°26'5 9.6
2017-Jul-15 12:00N 58°12' W 135°18'1111.2 310 / 111020.0 11.0 9.012.0
2017-Jul-15 11:00N 58°06' W 135°00'48 9.7 260 / 111019.0 10.0 7.910.0
2017-Jul-15 06:00N 58°54' W 135°12'19 1.0 180 / 141020.010.8 13.0 12.0
2017-Jul-14 10:00N 58°36' W 135°00'2914.3 050 / 111019.0 13.011.112.0
2017-Jul-14 08:00N 58°12' W 134°30'84 3.8 020 / 21019.010.8 12.0 11.0
2017-Jul-13 10:00N 56°48' W 134°24'52 8.7 050 / 31016.0 9.0 9.010.0
2017-Jul-13 04:00N 56°18' W 133°06'6521.8 320 / 61015.010.8 10.0 10.0
2017-Jul-13 01:00N 55°24' W 132°00'15 1.7 180 / 121016.010.8 14.0 13.0
2017-Jul-12 16:00N 55°18' W 131°36'4411.1 100 / 51012.0 5.4 13.0 12.0
2017-Jul-12 12:00N 54°36' W 131°12'6613.3 110 / 181013.0 11.0 9.012.0
2017-Jul-12 07:00N 53°30' W 131°00'7114.1 160 / 181017.010.8 11.0 12.0
2017-Jul-12 02:00N 52°24' W 130°18'9 9.5 190 / 121020.0 5.4 12.0 12.0
2017-Jul-12 01:00N 52°18' W 130°06'4916.4 190 / 121020.0 5.4 12.0 11.0
2017-Jul-11 22:00N 51°36' W 129°24'1411.5 230 / 131017.0 15.0 9.215.0
2017-Jul-11 20:47N 51°23' W 129°15'414.7
2017-Jul-11 20:30N 51°20' W 129°12'914.8
2017-Jul-11 19:54N 51°13' W 129°02'615.1
2017-Jul-11 19:30N 51°11' W 128°53'815.2
2017-Jul-11 19:00N 51°09' W 128°42'815.2
2017-Jul-11 18:31N 51°06' W 128°30'815.1
2017-Jul-11 18:01N 51°04' W 128°19'1315.2
2017-Jul-11 17:08N 51°01' W 127°58'215.8
2017-Jul-11 17:00N 51°00' W 127°55'713.7
2017-Jul-11 16:30N 50°58' W 127°45'713.9
2017-Jul-11 16:01N 50°53' W 127°37'714.9
2017-Jul-11 15:31N 50°50' W 127°26'815.7
2017-Jul-11 15:01N 50°47' W 127°15'815.6
2017-Jul-11 14:31N 50°44' W 127°04'915.3
2017-Jul-11 13:55N 50°40' W 126°51'815.9
2017-Jul-11 13:26N 50°35' W 126°42'5013.6
2017-Jul-11 09:46N 50°20' W 125°27'312.2
2017-Jul-11 09:30N 50°18' W 125°25'714.6
2017-Jul-11 09:00N 50°11' W 125°22'510.8
2017-Jul-11 08:30N 50°06' W 125°17'612.7
2017-Jul-11 08:00N 50°00' W 125°12'713.2
2017-Jul-11 07:30N 49°55' W 125°06'713.4
2017-Jul-11 07:00N 49°51' W 124°58'3206.7
2017-Jul-11 07:00N 49°54' W 125°00'1019.7 340 / 121017.0 16.012.416.0
2017-Jul-11 06:30N 49°47' W 124°50'612.5
2017-Jul-11 06:00N 49°43' W 124°42'612.2
2017-Jul-11 05:30N 49°39' W 124°35'5 8.9
2017-Jul-11 05:00N 49°36' W 124°30'376.5 070 / 51016.010.8 17.0 16.0
2017-Jul-11 04:57N 49°35' W 124°26'1513.4
2017-Jul-11 03:52N 49°28' W 124°07'514.1
2017-Jul-11 03:29N 49°26' W 123°59'1214.6
2017-Jul-11 02:40N 49°23' W 123°41'  
Track history (hours):
 
Tides and Currents Weather Stations Pressure Air Temp Water Temp Dewpoint Dewpoint Depression Visibility Wind Speed Wind Dir Waves Ship Positions

Crystal Serenity

Operator: Crystal Cruises

Last reported at 2017-Jul-21 02:21 UTC. Time now 2017-Jul-21 02:31 UTC.
Position N 49°21' W 123°33'.

Length 250 m; draft 7.5 m.

Type: Passenger vessel. MMSI: 311536000.

Date/timePositionNaut miles runAvg speedWind from/ knotsBaromVisibWave heightAir tempDewpointWater temp
2017-Jul-21 02:21N 49°21' W 123°33'514.7
2017-Jul-21 02:00N 49°20' W 123°26'714.8
2017-Jul-21 01:30N 49°19' W 123°14'611.1
2017-Jul-21 01:00N 49°18' W 123°06'0 0.4
2017-Jul-21 00:28N 49°17' W 123°07'0 0.0
2017-Jul-20 23:58N 49°17' W 123°07'0 0.0
2017-Jul-20 23:28N 49°17' W 123°07'0 0.0
2017-Jul-20 22:58N 49°17' W 123°07'0 0.0
2017-Jul-20 22:28N 49°17' W 123°07'0 0.0
2017-Jul-20 21:58N 49°17' W 123°07'0 0.0
2017-Jul-20 21:28N 49°17' W 123°07'0 0.0
2017-Jul-20 20:58N 49°17' W 123°07'0 0.0
2017-Jul-20 20:28N 49°17' W 123°07'0 0.0
2017-Jul-20 19:58N 49°17' W 123°07'0 0.0
2017-Jul-20 19:28N 49°17' W 123°07'0 0.0
2017-Jul-20 18:58N 49°17' W 123°07'0 0.0
2017-Jul-20 18:28N 49°17' W 123°07'0 0.0
2017-Jul-20 17:58N 49°17' W 123°07'0 0.0
2017-Jul-20 17:28N 49°17' W 123°07'0 0.0
2017-Jul-20 16:58N 49°17' W 123°07'0 0.0
2017-Jul-20 16:28N 49°17' W 123°07'0 0.0
2017-Jul-20 15:58N 49°17' W 123°07'0 0.0
2017-Jul-20 15:28N 49°17' W 123°07'0 0.0
2017-Jul-20 14:58N 49°17' W 123°07'0 0.0
2017-Jul-20 14:00N 49°17' W 123°07'1 1.4
2017-Jul-20 13:30N 49°18' W 123°07'4 7.1
2017-Jul-20 13:00N 49°19' W 123°12'4 8.8
2017-Jul-20 12:31N 49°17' W 123°18'5 9.1
2017-Jul-20 12:00N 49°13' W 123°20'72374.3
2017-Jul-20 12:00N 49°06' W 123°18'2 4.7 100 / 161015.0 16.010.413.0
2017-Jul-20 11:29N 49°08' W 123°20'510.4
2017-Jul-20 11:00N 49°03' W 123°18'612.3
2017-Jul-20 10:30N 48°59' W 123°12'612.7
2017-Jul-20 10:00N 48°54' W 123°05'612.2
2017-Jul-20 09:30N 48°49' W 123°00'713.7
2017-Jul-20 09:00N 48°44' W 123°07'2134.3
2017-Jul-20 09:00N 48°42' W 123°06'612.9 230 / 81015.0 16.010.413.0
2017-Jul-20 08:30N 48°40' W 123°15'714.9
2017-Jul-20 08:00N 48°33' W 123°12'714.3
2017-Jul-20 07:30N 48°26' W 123°11'714.9
2017-Jul-20 07:00N 48°22' W 123°21'3 0.2
2017-Jul-19 15:00N 48°24' W 123°18'4 5.7 220 / 101018.010.8 14.0 15.0
2017-Jul-19 14:20N 48°25' W 123°24'0 1.2
2017-Jul-19 14:01N 48°25' W 123°24'510.3
2017-Jul-19 13:31N 48°24' W 123°16'510.4
2017-Jul-19 13:01N 48°28' W 123°12'713.7
2017-Jul-19 12:31N 48°35' W 123°14'713.3
2017-Jul-19 12:00N 48°41' W 123°16'611.2
2017-Jul-19 11:30N 48°44' W 123°09'613.0
2017-Jul-19 11:00N 48°48' W 123°01'6382.3
2017-Jul-19 11:00N 48°42' W 123°00'1326.2 170 / 181015.0 18.012.720.0
2017-Jul-19 10:30N 48°53' W 123°09'816.1
2017-Jul-19 10:00N 48°59' W 123°18'1827.7
2017-Jul-19 10:00N 49°00' W 123°18'714.4 100 / 41015.0 19.013.820.0
2017-Jul-19 09:30N 49°04' W 123°26'715.2
2017-Jul-19 09:00N 49°10' W 123°35'714.8
2017-Jul-19 08:30N 49°13' W 123°44'815.3
2017-Jul-19 08:00N 49°17' W 123°55'815.1
2017-Jul-19 07:30N 49°21' W 124°05'715.1
2017-Jul-19 07:00N 49°24' W 124°15'715.1
2017-Jul-19 06:30N 49°28' W 124°25'815.3
2017-Jul-19 06:00N 49°33' W 124°34'815.3
2017-Jul-19 05:30N 49°39' W 124°42'815.0
2017-Jul-19 05:00N 49°44' W 124°50'3201.7
2017-Jul-19 05:00N 49°42' W 124°48'1020.0 070 / 61015.010.8 20.0 12.0
2017-Jul-19 04:30N 49°50' W 124°57'714.3
2017-Jul-19 04:00N 49°54' W 125°05'714.5
2017-Jul-19 03:30N 50°00' W 125°13'713.5
2017-Jul-19 03:00N 50°06' W 125°18'611.6
2017-Jul-19 02:30N 50°11' W 125°22'2 3.0
2017-Jul-19 02:00N 50°12' W 125°24'5193.8 170 / 111015.010.8 26.0 12.0
2017-Jul-19 01:58N 50°17' W 125°25'811.2
2017-Jul-19 01:16N 50°22' W 125°34'723.4
2017-Jul-19 01:00N 50°18' W 125°42'438.1 310 / 131018.0 5.4 15.0 15.0
2017-Jul-19 00:53N 50°22' W 125°42'3210.9
2017-Jul-18 22:00N 50°30' W 126°30'1322.2 260 / 171017.0 16.012.413.0
2017-Jul-18 21:25N 50°37' W 126°47'715.6
2017-Jul-18 20:58N 50°42' W 126°55'814.8
2017-Jul-18 20:24N 50°45' W 127°08'615.0
2017-Jul-18 20:00N 50°47' W 127°16'8559.7
2017-Jul-18 20:00N 50°42' W 127°06'1531.4 330 / 41017.0 15.011.312.0
2017-Jul-18 19:30N 50°50' W 127°27'714.2
2017-Jul-18 19:00N 50°53' W 127°37'714.2
2017-Jul-18 18:30N 50°58' W 127°45'713.9
2017-Jul-18 18:00N 51°00' W 127°56'197.6
2017-Jul-18 18:00N 51°00' W 127°54'816.5 090 / 71018.0 15.0 14.0
2017-Jul-18 17:29N 51°02' W 128°07'918.8
2017-Jul-18 17:01N 51°04' W 128°21'1019.2
2017-Jul-18 16:31N 51°07' W 128°35'1019.4
2017-Jul-18 16:00N 51°11' W 128°49'1019.3
2017-Jul-18 15:30N 51°15' W 129°03'1019.3
2017-Jul-18 15:00N 51°23' W 129°13'1919.2
2017-Jul-18 14:00N 51°39' W 129°31'3356.4
2017-Jul-18 14:00N 51°42' W 129°30'815.4 350 / 201020.010.8 14.0 15.0
2017-Jul-18 13:29N 51°46' W 129°40'13618.2
2017-Jul-18 06:00N 53°54' W 131°00'142 6.8 300 / 191022.010.8 12.0 12.0
2017-Jul-17 09:00N 55°18' W 134°18'7618.9 210 / 71023.0 12.0 7.914.0
2017-Jul-17 05:00N 56°24' W 135°24'42 3.5 200 / 81020.010.8 13.0 12.0
2017-Jul-16 17:00N 57°06' W 135°18'30 5.0 210 / 71018.0 2.2 12.0 10.0
2017-Jul-16 11:00N 57°00' W 136°12'48 9.5 260 / 211017.0 11.0 6.814.0
2017-Jul-16 06:00N 57°42' W 136°54'36 8.9 260 / 171017.010.8 12.0 11.0
2017-Jul-16 02:00N 58°12' W 136°18'7227.6 210 / 221018.0 5.4 11.0 10.0
2017-Jul-16 01:58N 58°19' W 136°12'613.3
2017-Jul-16 01:30N 58°21' W 136°01'510.5
2017-Jul-16 01:00N 58°27' W 136°00'510.9
2017-Jul-16 00:31N 58°32' W 136°03'714.3
2017-Jul-16 00:01N 58°39' W 136°08'714.0
2017-Jul-15 23:30N 58°44' W 136°17'2 4.1
2017-Jul-15 23:00N 58°42' W 136°18'2222.2 320 / 31017.0 11.0 6.8 6.0
2017-Jul-15 22:00N 58°54' W 136°54'24 4.2 090 / 21017.0 10.0 5.7 6.0
2017-Jul-15 16:27N 58°43' W 136°14'714.6
2017-Jul-15 16:00N 58°38' W 136°06'714.0
2017-Jul-15 15:30N 58°31' W 136°04'611.9
2017-Jul-15 15:00N 58°26' W 135°58'8 7.8
2017-Jul-15 14:00N 58°19' W 135°52'5 9.4
2017-Jul-15 13:30N 58°18' W 135°43'5 9.4
2017-Jul-15 12:59N 58°16' W 135°34'5 9.5
2017-Jul-15 12:31N 58°14' W 135°26'5 9.6
2017-Jul-15 12:00N 58°12' W 135°18'1111.2 310 / 111020.0 11.0 9.012.0
2017-Jul-15 11:00N 58°06' W 135°00'48 9.7 260 / 111019.0 10.0 7.910.0
2017-Jul-15 06:00N 58°54' W 135°12'19 1.0 180 / 141020.010.8 13.0 12.0
2017-Jul-14 10:00N 58°36' W 135°00'2914.3 050 / 111019.0 13.011.112.0
2017-Jul-14 08:00N 58°12' W 134°30'84 3.8 020 / 21019.010.8 12.0 11.0
2017-Jul-13 10:00N 56°48' W 134°24'52 8.7 050 / 31016.0 9.0 9.010.0
2017-Jul-13 04:00N 56°18' W 133°06'6521.8 320 / 61015.010.8 10.0 10.0
2017-Jul-13 01:00N 55°24' W 132°00'15 1.7 180 / 121016.010.8 14.0 13.0
2017-Jul-12 16:00N 55°18' W 131°36'4411.1 100 / 51012.0 5.4 13.0 12.0
2017-Jul-12 12:00N 54°36' W 131°12'6613.3 110 / 181013.0 11.0 9.012.0
2017-Jul-12 07:00N 53°30' W 131°00'7114.1 160 / 181017.010.8 11.0 12.0
2017-Jul-12 02:00N 52°24' W 130°18'9 9.5 190 / 121020.0 5.4 12.0 12.0
2017-Jul-12 01:00N 52°18' W 130°06'4916.4 190 / 121020.0 5.4 12.0 11.0
2017-Jul-11 22:00N 51°36' W 129°24'1411.5 230 / 131017.0 15.0 9.215.0
2017-Jul-11 20:47N 51°23' W 129°15'414.7
2017-Jul-11 20:30N 51°20' W 129°12'914.8
2017-Jul-11 19:54N 51°13' W 129°02'615.1
2017-Jul-11 19:30N 51°11' W 128°53'815.2
2017-Jul-11 19:00N 51°09' W 128°42'815.2
2017-Jul-11 18:31N 51°06' W 128°30'815.1
2017-Jul-11 18:01N 51°04' W 128°19'1315.2
2017-Jul-11 17:08N 51°01' W 127°58'215.8
2017-Jul-11 17:00N 51°00' W 127°55'713.7
2017-Jul-11 16:30N 50°58' W 127°45'713.9
2017-Jul-11 16:01N 50°53' W 127°37'714.9
2017-Jul-11 15:31N 50°50' W 127°26'815.7
2017-Jul-11 15:01N 50°47' W 127°15'815.6
2017-Jul-11 14:31N 50°44' W 127°04'915.3
2017-Jul-11 13:55N 50°40' W 126°51'815.9
2017-Jul-11 13:26N 50°35' W 126°42'5013.6
2017-Jul-11 09:46N 50°20' W 125°27'312.2
2017-Jul-11 09:30N 50°18' W 125°25'714.6
2017-Jul-11 09:00N 50°11' W 125°22'510.8
2017-Jul-11 08:30N 50°06' W 125°17'612.7
2017-Jul-11 08:00N 50°00' W 125°12'713.2
2017-Jul-11 07:30N 49°55' W 125°06'713.4
2017-Jul-11 07:00N 49°51' W 124°58'3206.7
2017-Jul-11 07:00N 49°54' W 125°00'1019.7 340 / 121017.0 16.012.416.0
2017-Jul-11 06:30N 49°47' W 124°50'612.5
2017-Jul-11 06:00N 49°43' W 124°42'612.2
2017-Jul-11 05:30N 49°39' W 124°35'5 8.9
2017-Jul-11 05:00N 49°36' W 124°30'376.5 070 / 51016.010.8 17.0 16.0
2017-Jul-11 04:57N 49°35' W 124°26'1513.4
2017-Jul-11 03:52N 49°28' W 124°07'514.1
2017-Jul-11 03:29N 49°26' W 123°59'1214.6
2017-Jul-11 02:40N 49°23' W 123°41'  

Dump ship's entire track history